»·PEaware :: N626N KLAS-KPOC

N626N :: KLAS-KPOC

FLIGHT INFORMATION

Flight Status: Arrived
Operator: Privately registered:
United States
More flights under this callsign
Pilot: Andy P. (22680)
Aircraft: Unknown
(B60T)
More flights by this aircraft type
Origin: KLAS Harry Reid Intl
United States
Destination: KPOC Brackett
United States
More flights between these airports :: More routes between these airports
Route: LAS V538 TNP V370 PSP SETER5
File this flight plan on PilotEdge
Remarks:
Altitude:
(Current/Filed)
22,000ft
Speed:
(Current/Filed)
280kts
Departed: 24-Oct-23 11:35 AM
Arrived: 24-Oct-23 12:30 PM
Distance/Time
Traveled:
176nm/0:55
Distance/Time
To Go:
Arrived

Flight Plot

Page will automatically refresh every two minutes.

Flight plan parsing failed; only flown route is shown


Map Options




Map Legend


Flown Route
Filed Route
Departure Airport
Arrival Airport
Navaid (VOR, NDB)
Fix

Horizontal Profiles

Position Reports

Time Latitude Longitude Heading Altitude Ground
Speed
24-Oct-23 11:09 36.082058 -115.170655 269 2184ft 0kts
24-Oct-23 11:09 36.082058 -115.170655 269 2184ft 0kts
24-Oct-23 11:10 36.082058 -115.170655 269 2184ft 0kts
24-Oct-23 11:11 36.082058 -115.170655 269 2184ft 0kts
24-Oct-23 11:12 36.082058 -115.170655 269 2184ft 0kts
24-Oct-23 11:13 36.082058 -115.170655 269 2184ft 0kts
24-Oct-23 11:14 36.082058 -115.170655 269 2184ft 0kts
24-Oct-23 11:15 36.082058 -115.170655 269 2184ft 0kts
24-Oct-23 11:16 36.082058 -115.170657 269 2184ft 0kts
24-Oct-23 11:17 36.082058 -115.170659 269 2184ft 0kts
24-Oct-23 11:18 36.082058 -115.170663 269 2184ft 0kts
24-Oct-23 11:19 36.082058 -115.170666 269 2184ft 0kts
24-Oct-23 11:20 36.082058 -115.170669 269 2184ft 0kts
24-Oct-23 11:21 36.082058 -115.170673 269 2184ft 0kts
24-Oct-23 11:22 36.082058 -115.170676 269 2184ft 0kts
24-Oct-23 11:23 36.082058 -115.170680 269 2184ft 0kts
24-Oct-23 11:24 36.082058 -115.170683 269 2184ft 0kts
24-Oct-23 11:25 36.082058 -115.170687 269 2184ft 0kts
24-Oct-23 11:26 36.082058 -115.170690 269 2184ft 0kts
24-Oct-23 11:27 36.082058 -115.170706 269 2184ft 0kts
24-Oct-23 11:28 36.081830 -115.169146 35 2184ft 11kts
24-Oct-23 11:29 36.085238 -115.167141 26 2184ft 14kts
24-Oct-23 11:30 36.089029 -115.164943 25 2184ft 15kts
24-Oct-23 11:31 36.093056 -115.162633 24 2184ft 16kts
24-Oct-23 11:32 36.097302 -115.160209 24 2184ft 16kts
24-Oct-23 11:33 36.099633 -115.156917 125 2184ft 13kts
24-Oct-23 11:34 36.076498 -115.169839 199 2863ft 178kts
24-Oct-23 11:35 36.024491 -115.182642 191 5023ft 192kts
24-Oct-23 11:36 35.970435 -115.191160 174 6987ft 215kts
24-Oct-23 11:37 35.911330 -115.169387 159 8342ft 214kts
24-Oct-23 11:38 35.854016 -115.163888 180 10538ft 210kts
24-Oct-23 11:39 35.795606 -115.164873 179 12912ft 209kts
24-Oct-23 11:40 35.735663 -115.165804 180 15427ft 222kts
24-Oct-23 11:41 35.673661 -115.166897 181 17916ft 224kts
24-Oct-23 11:42 35.606306 -115.168145 181 18981ft 270kts
24-Oct-23 11:43 35.528524 -115.169575 181 18969ft 285kts
24-Oct-23 11:44 35.454992 -115.170761 181 20743ft 253kts
24-Oct-23 11:45 35.383114 -115.171945 182 21973ft 273kts
24-Oct-23 11:46 35.303288 -115.173521 182 21983ft 299kts
24-Oct-23 11:47 35.217982 -115.175110 182 21981ft 310kts
24-Oct-23 11:48 35.131785 -115.178790 191 21977ft 309kts
24-Oct-23 11:49 35.050323 -115.212409 202 21955ft 308kts
24-Oct-23 11:50 34.969965 -115.247962 202 21956ft 308kts
24-Oct-23 11:51 34.889406 -115.283473 202 21955ft 308kts
24-Oct-23 11:52 34.808610 -115.319013 202 21955ft 308kts
24-Oct-23 11:53 34.727847 -115.354461 202 21936ft 309kts
24-Oct-23 11:54 34.646778 -115.389967 202 21937ft 310kts
24-Oct-23 11:55 34.565405 -115.425528 202 21944ft 311kts
24-Oct-23 11:56 34.483871 -115.461081 203 21955ft 312kts
24-Oct-23 11:57 34.401981 -115.496717 203 21960ft 313kts
24-Oct-23 11:58 34.321425 -115.536464 219 21964ft 309kts
24-Oct-23 11:59 34.258657 -115.605422 228 21955ft 304kts
24-Oct-23 12:00 34.196712 -115.675444 228 21951ft 306kts
24-Oct-23 12:01 34.134426 -115.745398 228 21955ft 305kts
24-Oct-23 12:02 34.091875 -115.825957 253 21955ft 293kts
24-Oct-23 12:03 34.059248 -115.915946 253 21959ft 291kts
24-Oct-23 12:04 34.026605 -116.005347 253 21957ft 291kts
24-Oct-23 12:05 33.993854 -116.094712 253 21949ft 291kts
24-Oct-23 12:06 33.960773 -116.185159 253 20871ft 304kts
24-Oct-23 12:07 33.926836 -116.277323 252 19067ft 291kts
24-Oct-23 12:08 33.894557 -116.365100 251 17270ft 285kts
24-Oct-23 12:09 33.870989 -116.451107 277 16099ft 248kts
24-Oct-23 12:10 33.875016 -116.533281 279 16077ft 247kts
24-Oct-23 12:11 33.879084 -116.617485 279 16096ft 259kts
24-Oct-23 12:12 33.883117 -116.704627 279 15995ft 266kts
24-Oct-23 12:13 33.887174 -116.791477 278 14579ft 251kts
24-Oct-23 12:14 33.891165 -116.876358 277 12985ft 250kts
24-Oct-23 12:15 33.894727 -116.959081 276 11363ft 247kts
24-Oct-23 12:16 33.901200 -117.040402 290 9576ft 236kts
24-Oct-23 12:17 33.928106 -117.110510 296 7782ft 228kts
24-Oct-23 12:18 33.955845 -117.182484 295 5978ft 235kts
24-Oct-23 12:19 33.980658 -117.250484 294 5049ft 221kts
24-Oct-23 12:20 34.005665 -117.318099 294 5028ft 219kts
24-Oct-23 12:21 34.030256 -117.385091 294 5026ft 217kts
24-Oct-23 12:22 34.054163 -117.450736 293 4218ft 181kts
24-Oct-23 12:23 34.076135 -117.511517 291 4022ft 196kts
24-Oct-23 12:24 34.081438 -117.573819 273 3345ft 150kts
24-Oct-23 12:25 34.084415 -117.634594 273 3220ft 195kts
24-Oct-23 12:26 34.086959 -117.688533 273 2805ft 127kts
24-Oct-23 12:27 34.088958 -117.731208 276 1933ft 127kts
24-Oct-23 12:28 34.090688 -117.768380 276 1196ft 109kts
24-Oct-23 12:29 34.090864 -117.784344 174 1014ft 0kts
24-Oct-23 12:30 34.090462 -117.783971 273 1014ft 0kts
24-Oct-23 12:31 34.090462 -117.783971 273 1014ft 0kts
24-Oct-23 12:32 34.090462 -117.783971 273 1014ft 0kts
24-Oct-23 12:33 34.090462 -117.783971 273 1014ft 0kts
24-Oct-23 12:34 34.090462 -117.783971 273 1014ft 0kts
24-Oct-23 12:35 34.090462 -117.783971 273 1014ft 0kts
24-Oct-23 12:36 34.090462 -117.783971 273 1014ft 0kts
24-Oct-23 12:37 34.090462 -117.783971 273 1014ft 0kts
24-Oct-23 12:38 34.090462 -117.783971 273 1014ft 0kts
24-Oct-23 12:39 34.090462 -117.783971 273 1014ft 0kts
24-Oct-23 12:40 34.090462 -117.783971 273 1014ft 0kts
24-Oct-23 12:41 34.090462 -117.783971 273 1014ft 0kts

Navigation Log

Ident Type
Flight plan parsing failed, navigation log unavailable